sensor_id;sensor_type;location;lat;lon;timestamp;temperature;humidity
3566;DHT22;1797;51.844;7.684;2023-04-16T00:00:47;8.30;99.90
3566;DHT22;1797;51.844;7.684;2023-04-16T00:03:13;8.40;99.90
3566;DHT22;1797;51.844;7.684;2023-04-16T00:05:38;8.40;99.90
3566;DHT22;1797;51.844;7.684;2023-04-16T00:08:04;8.40;99.90
3566;DHT22;1797;51.844;7.684;2023-04-16T00:10:30;8.40;99.90
3566;DHT22;1797;51.844;7.684;2023-04-16T00:12:55;8.40;99.90
3566;DHT22;1797;51.844;7.684;2023-04-16T00:15:21;8.30;99.90
3566;DHT22;1797;51.844;7.684;2023-04-16T00:17:47;8.30;99.90
3566;DHT22;1797;51.844;7.684;2023-04-16T00:20:12;8.30;99.90
3566;DHT22;1797;51.844;7.684;2023-04-16T00:22:38;8.30;99.90
3566;DHT22;1797;51.844;7.684;2023-04-16T00:25:04;8.50;99.90
3566;DHT22;1797;51.844;7.684;2023-04-16T00:27:30;8.30;99.90
3566;DHT22;1797;51.844;7.684;2023-04-16T00:29:55;8.30;99.90
3566;DHT22;1797;51.844;7.684;2023-04-16T00:32:21;8.30;99.90
3566;DHT22;1797;51.844;7.684;2023-04-16T00:34:46;8.30;99.90
3566;DHT22;1797;51.844;7.684;2023-04-16T00:37:12;8.30;99.90
3566;DHT22;1797;51.844;7.684;2023-04-16T00:39:37;8.30;99.90
3566;DHT22;1797;51.844;7.684;2023-04-16T00:42:03;8.30;99.90
3566;DHT22;1797;51.844;7.684;2023-04-16T00:44:29;8.40;99.90
3566;DHT22;1797;51.844;7.684;2023-04-16T00:46:56;8.30;99.90
3566;DHT22;1797;51.844;7.684;2023-04-16T00:49:22;8.30;99.90
3566;DHT22;1797;51.844;7.684;2023-04-16T00:51:49;8.30;99.90
3566;DHT22;1797;51.844;7.684;2023-04-16T00:54:14;8.30;99.90
3566;DHT22;1797;51.844;7.684;2023-04-16T00:56:40;8.30;99.90
3566;DHT22;1797;51.844;7.684;2023-04-16T00:59:07;8.30;99.90
3566;DHT22;1797;51.844;7.684;2023-04-16T01:01:32;8.30;99.90
3566;DHT22;1797;51.844;7.684;2023-04-16T01:03:58;8.30;99.90
3566;DHT22;1797;51.844;7.684;2023-04-16T01:06:24;8.30;99.90
3566;DHT22;1797;51.844;7.684;2023-04-16T01:08:50;8.30;99.90
3566;DHT22;1797;51.844;7.684;2023-04-16T01:11:15;8.30;99.90
3566;DHT22;1797;51.844;7.684;2023-04-16T01:13:41;8.30;99.90
3566;DHT22;1797;51.844;7.684;2023-04-16T01:16:08;8.40;99.90
3566;DHT22;1797;51.844;7.684;2023-04-16T01:18:35;8.30;99.90
3566;DHT22;1797;51.844;7.684;2023-04-16T01:21:01;8.40;99.90
3566;DHT22;1797;51.844;7.684;2023-04-16T01:23:26;8.40;99.90
3566;DHT22;1797;51.844;7.684;2023-04-16T01:25:52;8.30;99.90
3566;DHT22;1797;51.844;7.684;2023-04-16T01:28:18;8.30;99.90
3566;DHT22;1797;51.844;7.684;2023-04-16T01:30:43;8.30;99.90
3566;DHT22;1797;51.844;7.684;2023-04-16T01:33:12;8.30;99.90
3566;DHT22;1797;51.844;7.684;2023-04-16T01:35:38;8.30;99.90
3566;DHT22;1797;51.844;7.684;2023-04-16T01:38:06;8.30;99.90
3566;DHT22;1797;51.844;7.684;2023-04-16T01:40:33;8.40;99.90
3566;DHT22;1797;51.844;7.684;2023-04-16T01:42:58;8.30;99.90
3566;DHT22;1797;51.844;7.684;2023-04-16T01:45:24;8.30;99.90
3566;DHT22;1797;51.844;7.684;2023-04-16T01:47:49;8.30;99.90
3566;DHT22;1797;51.844;7.684;2023-04-16T01:50:16;8.30;99.90
3566;DHT22;1797;51.844;7.684;2023-04-16T01:52:42;8.30;99.90
3566;DHT22;1797;51.844;7.684;2023-04-16T01:55:08;8.40;99.90
3566;DHT22;1797;51.844;7.684;2023-04-16T01:57:34;8.40;99.90
3566;DHT22;1797;51.844;7.684;2023-04-16T02:00:00;8.50;99.90
3566;DHT22;1797;51.844;7.684;2023-04-16T02:02:26;8.50;99.90
3566;DHT22;1797;51.844;7.684;2023-04-16T02:04:52;8.50;99.90
3566;DHT22;1797;51.844;7.684;2023-04-16T02:07:17;8.50;99.90
3566;DHT22;1797;51.844;7.684;2023-04-16T02:09:43;8.50;99.90
3566;DHT22;1797;51.844;7.684;2023-04-16T02:12:09;8.50;99.90
3566;DHT22;1797;51.844;7.684;2023-04-16T02:14:36;8.50;99.90
3566;DHT22;1797;51.844;7.684;2023-04-16T02:17:01;8.50;99.90
3566;DHT22;1797;51.844;7.684;2023-04-16T02:19:27;8.50;99.90
3566;DHT22;1797;51.844;7.684;2023-04-16T02:21:53;8.50;99.90
3566;DHT22;1797;51.844;7.684;2023-04-16T02:24:19;8.60;99.90
3566;DHT22;1797;51.844;7.684;2023-04-16T02:26:45;8.60;99.90
3566;DHT22;1797;51.844;7.684;2023-04-16T02:29:11;8.60;99.90
3566;DHT22;1797;51.844;7.684;2023-04-16T02:31:37;8.60;99.90
3566;DHT22;1797;51.844;7.684;2023-04-16T02:34:03;8.60;99.90
3566;DHT22;1797;51.844;7.684;2023-04-16T02:36:28;8.50;99.90
3566;DHT22;1797;51.844;7.684;2023-04-16T02:38:56;8.50;99.90
3566;DHT22;1797;51.844;7.684;2023-04-16T02:41:21;8.50;99.90
3566;DHT22;1797;51.844;7.684;2023-04-16T02:43:47;8.50;99.90
3566;DHT22;1797;51.844;7.684;2023-04-16T02:46:12;8.50;99.90
3566;DHT22;1797;51.844;7.684;2023-04-16T02:48:38;8.60;99.90
3566;DHT22;1797;51.844;7.684;2023-04-16T02:51:04;8.50;99.90
3566;DHT22;1797;51.844;7.684;2023-04-16T02:53:30;8.60;99.90
3566;DHT22;1797;51.844;7.684;2023-04-16T02:55:56;8.60;99.90
3566;DHT22;1797;51.844;7.684;2023-04-16T02:58:22;8.60;99.90
3566;DHT22;1797;51.844;7.684;2023-04-16T03:00:49;8.60;99.90
3566;DHT22;1797;51.844;7.684;2023-04-16T03:03:15;8.60;99.90
3566;DHT22;1797;51.844;7.684;2023-04-16T03:05:40;8.60;99.90
3566;DHT22;1797;51.844;7.684;2023-04-16T03:08:06;8.70;99.90
3566;DHT22;1797;51.844;7.684;2023-04-16T03:10:32;8.70;99.90
3566;DHT22;1797;51.844;7.684;2023-04-16T03:12:59;8.80;99.90
3566;DHT22;1797;51.844;7.684;2023-04-16T03:15:24;8.70;99.90
3566;DHT22;1797;51.844;7.684;2023-04-16T03:17:50;8.70;99.90
3566;DHT22;1797;51.844;7.684;2023-04-16T03:20:16;8.80;99.90
3566;DHT22;1797;51.844;7.684;2023-04-16T03:22:42;8.70;99.90
3566;DHT22;1797;51.844;7.684;2023-04-16T03:25:08;8.70;99.90
3566;DHT22;1797;51.844;7.684;2023-04-16T03:27:34;8.70;99.90
3566;DHT22;1797;51.844;7.684;2023-04-16T03:30:00;8.70;99.90
3566;DHT22;1797;51.844;7.684;2023-04-16T03:32:25;8.70;99.90
3566;DHT22;1797;51.844;7.684;2023-04-16T03:34:51;8.70;99.90
3566;DHT22;1797;51.844;7.684;2023-04-16T03:37:17;8.80;99.90
3566;DHT22;1797;51.844;7.684;2023-04-16T03:39:42;8.70;99.90
3566;DHT22;1797;51.844;7.684;2023-04-16T03:42:08;8.70;99.90
3566;DHT22;1797;51.844;7.684;2023-04-16T03:44:34;8.70;99.90
3566;DHT22;1797;51.844;7.684;2023-04-16T03:47:00;8.80;99.90
3566;DHT22;1797;51.844;7.684;2023-04-16T03:49:25;8.80;99.90
3566;DHT22;1797;51.844;7.684;2023-04-16T03:51:51;8.80;99.90
3566;DHT22;1797;51.844;7.684;2023-04-16T03:54:16;8.80;99.90
3566;DHT22;1797;51.844;7.684;2023-04-16T03:56:42;8.80;99.90
3566;DHT22;1797;51.844;7.684;2023-04-16T03:59:08;8.80;99.90
3566;DHT22;1797;51.844;7.684;2023-04-16T04:01:34;8.80;99.90
3566;DHT22;1797;51.844;7.684;2023-04-16T04:03:59;8.80;99.90
3566;DHT22;1797;51.844;7.684;2023-04-16T04:06:25;8.80;99.90
3566;DHT22;1797;51.844;7.684;2023-04-16T04:08:52;8.80;99.90
3566;DHT22;1797;51.844;7.684;2023-04-16T04:11:17;8.80;99.90
3566;DHT22;1797;51.844;7.684;2023-04-16T04:13:43;8.80;99.90
3566;DHT22;1797;51.844;7.684;2023-04-16T04:16:08;8.80;99.90
3566;DHT22;1797;51.844;7.684;2023-04-16T04:18:34;8.80;99.90
3566;DHT22;1797;51.844;7.684;2023-04-16T04:21:05;8.80;99.90
3566;DHT22;1797;51.844;7.684;2023-04-16T04:23:30;8.80;99.90
3566;DHT22;1797;51.844;7.684;2023-04-16T04:25:56;8.70;99.90
3566;DHT22;1797;51.844;7.684;2023-04-16T04:28:21;8.70;99.90
3566;DHT22;1797;51.844;7.684;2023-04-16T04:30:47;8.70;99.90
3566;DHT22;1797;51.844;7.684;2023-04-16T04:33:12;8.70;99.90
3566;DHT22;1797;51.844;7.684;2023-04-16T04:35:38;8.70;99.90
3566;DHT22;1797;51.844;7.684;2023-04-16T04:38:04;8.70;99.90
3566;DHT22;1797;51.844;7.684;2023-04-16T04:40:29;8.60;99.90
3566;DHT22;1797;51.844;7.684;2023-04-16T04:42:55;8.60;99.90
3566;DHT22;1797;51.844;7.684;2023-04-16T04:45:20;8.60;99.90
3566;DHT22;1797;51.844;7.684;2023-04-16T04:47:50;8.60;99.90
3566;DHT22;1797;51.844;7.684;2023-04-16T04:50:16;8.60;99.90
3566;DHT22;1797;51.844;7.684;2023-04-16T04:52:42;8.60;99.90
3566;DHT22;1797;51.844;7.684;2023-04-16T04:55:07;8.60;99.90
3566;DHT22;1797;51.844;7.684;2023-04-16T04:57:33;8.60;99.90
3566;DHT22;1797;51.844;7.684;2023-04-16T04:59:59;8.60;99.90
3566;DHT22;1797;51.844;7.684;2023-04-16T05:02:24;8.70;99.90
3566;DHT22;1797;51.844;7.684;2023-04-16T05:04:50;8.60;99.90
3566;DHT22;1797;51.844;7.684;2023-04-16T05:07:15;8.60;99.90
3566;DHT22;1797;51.844;7.684;2023-04-16T05:09:41;8.70;99.90
3566;DHT22;1797;51.844;7.684;2023-04-16T05:12:06;8.70;99.90
3566;DHT22;1797;51.844;7.684;2023-04-16T05:14:32;8.70;99.90
3566;DHT22;1797;51.844;7.684;2023-04-16T05:16:58;8.70;99.90
3566;DHT22;1797;51.844;7.684;2023-04-16T05:19:24;8.60;99.90
3566;DHT22;1797;51.844;7.684;2023-04-16T05:21:49;8.60;99.90
3566;DHT22;1797;51.844;7.684;2023-04-16T05:24:15;8.60;99.90
3566;DHT22;1797;51.844;7.684;2023-04-16T05:26:41;8.50;99.90
3566;DHT22;1797;51.844;7.684;2023-04-16T05:29:06;8.60;99.90
3566;DHT22;1797;51.844;7.684;2023-04-16T05:31:32;8.60;99.90
3566;DHT22;1797;51.844;7.684;2023-04-16T05:33:57;8.60;99.90
3566;DHT22;1797;51.844;7.684;2023-04-16T05:36:23;8.60;99.90
3566;DHT22;1797;51.844;7.684;2023-04-16T05:38:48;8.50;99.90
3566;DHT22;1797;51.844;7.684;2023-04-16T05:41:14;8.50;99.90
3566;DHT22;1797;51.844;7.684;2023-04-16T05:43:39;8.50;99.90
3566;DHT22;1797;51.844;7.684;2023-04-16T05:46:05;8.50;99.90
3566;DHT22;1797;51.844;7.684;2023-04-16T05:48:31;8.50;99.90
3566;DHT22;1797;51.844;7.684;2023-04-16T05:50:56;8.50;99.90
3566;DHT22;1797;51.844;7.684;2023-04-16T05:53:22;8.40;99.90
3566;DHT22;1797;51.844;7.684;2023-04-16T05:55:48;8.50;99.90
3566;DHT22;1797;51.844;7.684;2023-04-16T05:58:13;8.50;99.90
3566;DHT22;1797;51.844;7.684;2023-04-16T06:00:39;8.50;99.90
3566;DHT22;1797;51.844;7.684;2023-04-16T06:03:05;8.50;99.90
3566;DHT22;1797;51.844;7.684;2023-04-16T06:05:31;8.50;99.90
3566;DHT22;1797;51.844;7.684;2023-04-16T06:07:56;8.50;99.90
3566;DHT22;1797;51.844;7.684;2023-04-16T06:10:22;8.50;99.90
3566;DHT22;1797;51.844;7.684;2023-04-16T06:12:47;8.50;99.90
3566;DHT22;1797;51.844;7.684;2023-04-16T06:15:13;8.50;99.90
3566;DHT22;1797;51.844;7.684;2023-04-16T06:17:39;8.60;99.90
3566;DHT22;1797;51.844;7.684;2023-04-16T06:20:05;8.60;99.90
3566;DHT22;1797;51.844;7.684;2023-04-16T06:22:31;8.50;99.90
3566;DHT22;1797;51.844;7.684;2023-04-16T06:24:56;8.40;99.90
3566;DHT22;1797;51.844;7.684;2023-04-16T06:27:22;8.40;99.90
3566;DHT22;1797;51.844;7.684;2023-04-16T06:29:47;8.40;99.90
3566;DHT22;1797;51.844;7.684;2023-04-16T06:32:13;8.40;99.90
3566;DHT22;1797;51.844;7.684;2023-04-16T06:34:39;8.40;99.90
3566;DHT22;1797;51.844;7.684;2023-04-16T06:37:05;8.30;99.90
3566;DHT22;1797;51.844;7.684;2023-04-16T06:39:30;8.30;99.90
3566;DHT22;1797;51.844;7.684;2023-04-16T06:41:56;8.30;99.90
3566;DHT22;1797;51.844;7.684;2023-04-16T06:44:22;8.40;99.90
3566;DHT22;1797;51.844;7.684;2023-04-16T06:46:47;8.40;99.90
3566;DHT22;1797;51.844;7.684;2023-04-16T06:49:13;8.40;99.90
3566;DHT22;1797;51.844;7.684;2023-04-16T06:51:38;8.50;99.90
3566;DHT22;1797;51.844;7.684;2023-04-16T06:54:04;8.50;99.90
3566;DHT22;1797;51.844;7.684;2023-04-16T06:56:29;8.50;99.90
3566;DHT22;1797;51.844;7.684;2023-04-16T06:58:56;8.60;99.90
3566;DHT22;1797;51.844;7.684;2023-04-16T07:01:23;8.60;99.90
3566;DHT22;1797;51.844;7.684;2023-04-16T07:03:48;8.60;99.90
3566;DHT22;1797;51.844;7.684;2023-04-16T07:06:14;8.60;99.90
3566;DHT22;1797;51.844;7.684;2023-04-16T07:08:40;8.60;99.90
3566;DHT22;1797;51.844;7.684;2023-04-16T07:11:06;8.70;99.90
3566;DHT22;1797;51.844;7.684;2023-04-16T07:13:31;8.70;99.90
3566;DHT22;1797;51.844;7.684;2023-04-16T07:15:57;8.70;99.90
3566;DHT22;1797;51.844;7.684;2023-04-16T07:18:22;8.80;99.90
3566;DHT22;1797;51.844;7.684;2023-04-16T07:20:48;8.90;99.90
3566;DHT22;1797;51.844;7.684;2023-04-16T07:23:13;9.00;99.90
3566;DHT22;1797;51.844;7.684;2023-04-16T07:25:39;8.90;99.90
3566;DHT22;1797;51.844;7.684;2023-04-16T07:28:06;8.80;99.90
3566;DHT22;1797;51.844;7.684;2023-04-16T07:30:31;8.80;99.90
3566;DHT22;1797;51.844;7.684;2023-04-16T07:33:02;8.90;99.90
3566;DHT22;1797;51.844;7.684;2023-04-16T07:35:28;8.90;99.90
3566;DHT22;1797;51.844;7.684;2023-04-16T07:37:54;9.00;99.90
3566;DHT22;1797;51.844;7.684;2023-04-16T07:40:20;8.90;99.90
3566;DHT22;1797;51.844;7.684;2023-04-16T07:42:45;8.90;99.90
3566;DHT22;1797;51.844;7.684;2023-04-16T07:45:11;8.90;99.90
3566;DHT22;1797;51.844;7.684;2023-04-16T07:47:37;8.90;99.90
3566;DHT22;1797;51.844;7.684;2023-04-16T07:50:02;9.00;99.90
3566;DHT22;1797;51.844;7.684;2023-04-16T07:52:28;9.00;99.90
3566;DHT22;1797;51.844;7.684;2023-04-16T07:54:54;9.10;99.90
3566;DHT22;1797;51.844;7.684;2023-04-16T07:57:19;9.20;99.90
3566;DHT22;1797;51.844;7.684;2023-04-16T07:59:45;9.20;99.90
3566;DHT22;1797;51.844;7.684;2023-04-16T08:02:14;9.20;99.90
3566;DHT22;1797;51.844;7.684;2023-04-16T08:04:43;9.20;99.90
3566;DHT22;1797;51.844;7.684;2023-04-16T08:07:09;9.20;99.90
3566;DHT22;1797;51.844;7.684;2023-04-16T08:09:35;9.30;99.90
3566;DHT22;1797;51.844;7.684;2023-04-16T08:12:01;9.30;99.90
3566;DHT22;1797;51.844;7.684;2023-04-16T08:14:27;9.40;99.90
3566;DHT22;1797;51.844;7.684;2023-04-16T08:16:52;9.40;99.90
3566;DHT22;1797;51.844;7.684;2023-04-16T08:19:18;9.50;99.90
3566;DHT22;1797;51.844;7.684;2023-04-16T08:21:44;9.60;99.90
3566;DHT22;1797;51.844;7.684;2023-04-16T08:24:09;9.70;99.90
3566;DHT22;1797;51.844;7.684;2023-04-16T08:26:36;9.70;99.90
3566;DHT22;1797;51.844;7.684;2023-04-16T08:29:01;9.70;99.90
3566;DHT22;1797;51.844;7.684;2023-04-16T08:31:27;9.80;99.90
3566;DHT22;1797;51.844;7.684;2023-04-16T08:33:53;9.90;99.90
3566;DHT22;1797;51.844;7.684;2023-04-16T08:36:18;10.10;99.90
3566;DHT22;1797;51.844;7.684;2023-04-16T08:38:45;10.20;14.90
3566;DHT22;1797;51.844;7.684;2023-04-16T08:41:11;10.30;9.80
3566;DHT22;1797;51.844;7.684;2023-04-16T08:43:38;10.50;1.00
3566;DHT22;1797;51.844;7.684;2023-04-16T08:46:07;10.50;1.00
3566;DHT22;1797;51.844;7.684;2023-04-16T08:48:34;10.40;1.00
3566;DHT22;1797;51.844;7.684;2023-04-16T08:51:01;10.40;1.00
3566;DHT22;1797;51.844;7.684;2023-04-16T08:53:53;10.50;1.00
3566;DHT22;1797;51.844;7.684;2023-04-16T08:56:24;10.80;1.00
3566;DHT22;1797;51.844;7.684;2023-04-16T08:58:53;10.80;1.00
3566;DHT22;1797;51.844;7.684;2023-04-16T09:01:19;10.80;1.00
3566;DHT22;1797;51.844;7.684;2023-04-16T09:03:48;10.80;99.90
3566;DHT22;1797;51.844;7.684;2023-04-16T09:06:14;10.70;1.00
3566;DHT22;1797;51.844;7.684;2023-04-16T09:08:43;10.70;1.00
3566;DHT22;1797;51.844;7.684;2023-04-16T09:11:08;11.00;1.00
3566;DHT22;1797;51.844;7.684;2023-04-16T09:13:36;11.30;99.90
3566;DHT22;1797;51.844;7.684;2023-04-16T09:16:02;11.50;99.90
3566;DHT22;1797;51.844;7.684;2023-04-16T09:18:29;11.80;99.90
3566;DHT22;1797;51.844;7.684;2023-04-16T09:20:55;11.90;99.90
3566;DHT22;1797;51.844;7.684;2023-04-16T09:23:21;12.10;99.90
3566;DHT22;1797;51.844;7.684;2023-04-16T09:25:47;12.50;1.00
3566;DHT22;1797;51.844;7.684;2023-04-16T09:28:25;12.80;1.00
3566;DHT22;1797;51.844;7.684;2023-04-16T09:33:33;12.90;1.00
3566;DHT22;1797;51.844;7.684;2023-04-16T09:35:59;12.70;31.40
3566;DHT22;1797;51.844;7.684;2023-04-16T09:38:24;13.00;99.90
3566;DHT22;1797;51.844;7.684;2023-04-16T09:41:05;12.50;1.00
3566;DHT22;1797;51.844;7.684;2023-04-16T09:43:32;12.60;99.90
3566;DHT22;1797;51.844;7.684;2023-04-16T09:45:57;12.50;99.90
3566;DHT22;1797;51.844;7.684;2023-04-16T09:48:30;12.50;99.90
3566;DHT22;1797;51.844;7.684;2023-04-16T09:50:56;12.50;99.90
3566;DHT22;1797;51.844;7.684;2023-04-16T09:53:30;12.40;1.00
3566;DHT22;1797;51.844;7.684;2023-04-16T09:56:01;12.50;99.90
3566;DHT22;1797;51.844;7.684;2023-04-16T09:58:27;12.70;99.90
3566;DHT22;1797;51.844;7.684;2023-04-16T10:01:14;12.70;1.00
3566;DHT22;1797;51.844;7.684;2023-04-16T10:03:42;12.80;1.00
3566;DHT22;1797;51.844;7.684;2023-04-16T10:06:19;12.80;1.00
3566;DHT22;1797;51.844;7.684;2023-04-16T10:08:52;12.90;24.20
3566;DHT22;1797;51.844;7.684;2023-04-16T10:11:20;13.00;1.00
3566;DHT22;1797;51.844;7.684;2023-04-16T10:13:46;12.80;1.00
3566;DHT22;1797;51.844;7.684;2023-04-16T10:16:12;12.60;1.00
3566;DHT22;1797;51.844;7.684;2023-04-16T10:18:40;12.70;1.00
3566;DHT22;1797;51.844;7.684;2023-04-16T10:21:06;12.70;99.90
3566;DHT22;1797;51.844;7.684;2023-04-16T10:23:33;12.90;1.00
3566;DHT22;1797;51.844;7.684;2023-04-16T10:26:00;13.20;1.00
3566;DHT22;1797;51.844;7.684;2023-04-16T10:28:26;13.40;1.00
3566;DHT22;1797;51.844;7.684;2023-04-16T10:30:55;13.60;99.90
3566;DHT22;1797;51.844;7.684;2023-04-16T10:33:24;13.50;42.00
3566;DHT22;1797;51.844;7.684;2023-04-16T10:35:51;13.30;99.90
3566;DHT22;1797;51.844;7.684;2023-04-16T10:38:23;13.20;99.90
3566;DHT22;1797;51.844;7.684;2023-04-16T10:40:49;13.10;99.90
3566;DHT22;1797;51.844;7.684;2023-04-16T10:43:18;13.20;99.90
3566;DHT22;1797;51.844;7.684;2023-04-16T10:45:46;13.30;75.10
3566;DHT22;1797;51.844;7.684;2023-04-16T10:48:12;13.40;99.90
3566;DHT22;1797;51.844;7.684;2023-04-16T10:50:39;13.30;99.90
3566;DHT22;1797;51.844;7.684;2023-04-16T10:53:26;13.20;99.90
3566;DHT22;1797;51.844;7.684;2023-04-16T10:58:31;13.10;99.90
3566;DHT22;1797;51.844;7.684;2023-04-16T11:01:00;13.20;79.30
3566;DHT22;1797;51.844;7.684;2023-04-16T11:03:30;13.20;49.60
3566;DHT22;1797;51.844;7.684;2023-04-16T11:06:12;13.10;57.60
3566;DHT22;1797;51.844;7.684;2023-04-16T11:08:39;13.00;99.90
3566;DHT22;1797;51.844;7.684;2023-04-16T11:11:05;13.10;99.90
3566;DHT22;1797;51.844;7.684;2023-04-16T11:13:31;13.10;99.90
3566;DHT22;1797;51.844;7.684;2023-04-16T11:15:58;13.40;99.90
3566;DHT22;1797;51.844;7.684;2023-04-16T11:18:25;13.60;54.90
3566;DHT22;1797;51.844;7.684;2023-04-16T11:20:50;13.70;1.00
3566;DHT22;1797;51.844;7.684;2023-04-16T11:23:16;13.80;1.00
3566;DHT22;1797;51.844;7.684;2023-04-16T11:25:41;14.00;1.00
3566;DHT22;1797;51.844;7.684;2023-04-16T11:28:07;14.10;1.00
3566;DHT22;1797;51.844;7.684;2023-04-16T11:30:34;14.10;1.00
3566;DHT22;1797;51.844;7.684;2023-04-16T11:33:08;14.10;1.00
3566;DHT22;1797;51.844;7.684;2023-04-16T11:35:36;14.30;1.00
3566;DHT22;1797;51.844;7.684;2023-04-16T11:38:03;14.40;99.90
3566;DHT22;1797;51.844;7.684;2023-04-16T11:40:30;14.20;1.00
3566;DHT22;1797;51.844;7.684;2023-04-16T11:43:00;14.30;1.00
3566;DHT22;1797;51.844;7.684;2023-04-16T11:45:27;14.30;1.00
3566;DHT22;1797;51.844;7.684;2023-04-16T11:47:52;14.50;1.00
3566;DHT22;1797;51.844;7.684;2023-04-16T11:50:25;14.70;1.00
3566;DHT22;1797;51.844;7.684;2023-04-16T11:52:53;14.80;99.90
3566;DHT22;1797;51.844;7.684;2023-04-16T11:55:19;14.90;1.00
3566;DHT22;1797;51.844;7.684;2023-04-16T11:57:45;14.80;99.90
3566;DHT22;1797;51.844;7.684;2023-04-16T12:05:06;14.90;99.90
3566;DHT22;1797;51.844;7.684;2023-04-16T12:07:43;14.80;99.90
3566;DHT22;1797;51.844;7.684;2023-04-16T12:10:10;14.80;99.90
3566;DHT22;1797;51.844;7.684;2023-04-16T12:12:36;14.70;99.90
3566;DHT22;1797;51.844;7.684;2023-04-16T12:15:02;14.70;99.90
3566;DHT22;1797;51.844;7.684;2023-04-16T12:17:30;14.70;99.90
3566;DHT22;1797;51.844;7.684;2023-04-16T12:19:57;14.60;99.90
3566;DHT22;1797;51.844;7.684;2023-04-16T12:22:34;14.50;99.90
3566;DHT22;1797;51.844;7.684;2023-04-16T12:25:04;14.30;99.90
3566;DHT22;1797;51.844;7.684;2023-04-16T12:28:00;14.10;99.90
3566;DHT22;1797;51.844;7.684;2023-04-16T12:30:26;14.00;99.90
3566;DHT22;1797;51.844;7.684;2023-04-16T12:33:12;14.00;99.90
3566;DHT22;1797;51.844;7.684;2023-04-16T12:35:38;14.00;1.00
3566;DHT22;1797;51.844;7.684;2023-04-16T12:38:03;14.10;99.90
3566;DHT22;1797;51.844;7.684;2023-04-16T12:40:29;14.20;1.00
3566;DHT22;1797;51.844;7.684;2023-04-16T12:42:54;14.20;99.90
3566;DHT22;1797;51.844;7.684;2023-04-16T12:45:21;14.30;99.90
3566;DHT22;1797;51.844;7.684;2023-04-16T12:47:46;14.30;99.90
3566;DHT22;1797;51.844;7.684;2023-04-16T12:50:12;14.30;99.90
3566;DHT22;1797;51.844;7.684;2023-04-16T12:52:38;14.40;99.90
3566;DHT22;1797;51.844;7.684;2023-04-16T12:55:04;14.40;99.90
3566;DHT22;1797;51.844;7.684;2023-04-16T12:57:29;14.50;99.90
3566;DHT22;1797;51.844;7.684;2023-04-16T12:59:56;14.50;99.90
3566;DHT22;1797;51.844;7.684;2023-04-16T13:02:22;14.60;99.90
3566;DHT22;1797;51.844;7.684;2023-04-16T13:04:49;14.70;99.90
3566;DHT22;1797;51.844;7.684;2023-04-16T13:07:14;14.90;99.90
3566;DHT22;1797;51.844;7.684;2023-04-16T13:09:41;14.70;99.90
3566;DHT22;1797;51.844;7.684;2023-04-16T13:12:07;14.50;99.90
3566;DHT22;1797;51.844;7.684;2023-04-16T13:14:32;14.20;99.90
3566;DHT22;1797;51.844;7.684;2023-04-16T13:16:58;14.00;1.00
3566;DHT22;1797;51.844;7.684;2023-04-16T13:19:23;13.90;1.00
3566;DHT22;1797;51.844;7.684;2023-04-16T13:21:49;13.80;1.00
3566;DHT22;1797;51.844;7.684;2023-04-16T13:24:14;13.60;1.00
3566;DHT22;1797;51.844;7.684;2023-04-16T13:26:40;13.60;1.00
3566;DHT22;1797;51.844;7.684;2023-04-16T13:29:07;13.60;1.00
3566;DHT22;1797;51.844;7.684;2023-04-16T13:31:32;13.60;1.00
3566;DHT22;1797;51.844;7.684;2023-04-16T13:33:58;13.60;19.20
3566;DHT22;1797;51.844;7.684;2023-04-16T13:36:24;13.70;1.00
3566;DHT22;1797;51.844;7.684;2023-04-16T13:38:50;13.80;1.00
3566;DHT22;1797;51.844;7.684;2023-04-16T13:41:15;13.80;1.00
3566;DHT22;1797;51.844;7.684;2023-04-16T13:43:41;13.90;1.00
3566;DHT22;1797;51.844;7.684;2023-04-16T13:46:06;13.90;1.00
3566;DHT22;1797;51.844;7.684;2023-04-16T13:48:32;13.90;1.00
3566;DHT22;1797;51.844;7.684;2023-04-16T13:50:58;13.80;1.00
3566;DHT22;1797;51.844;7.684;2023-04-16T13:53:23;13.90;1.00
3566;DHT22;1797;51.844;7.684;2023-04-16T13:55:49;13.90;1.00
3566;DHT22;1797;51.844;7.684;2023-04-16T13:58:15;14.00;1.00
3566;DHT22;1797;51.844;7.684;2023-04-16T14:00:41;13.90;1.00
3566;DHT22;1797;51.844;7.684;2023-04-16T14:03:07;13.80;1.00
3566;DHT22;1797;51.844;7.684;2023-04-16T14:05:33;13.80;1.00
3566;DHT22;1797;51.844;7.684;2023-04-16T14:07:58;13.70;1.00
3566;DHT22;1797;51.844;7.684;2023-04-16T14:10:24;13.60;1.00
3566;DHT22;1797;51.844;7.684;2023-04-16T14:12:50;13.50;45.80
3566;DHT22;1797;51.844;7.684;2023-04-16T14:15:15;13.60;75.90
3566;DHT22;1797;51.844;7.684;2023-04-16T14:17:42;13.70;1.00
3566;DHT22;1797;51.844;7.684;2023-04-16T14:20:09;13.70;1.00
3566;DHT22;1797;51.844;7.684;2023-04-16T14:22:35;13.70;1.00
3566;DHT22;1797;51.844;7.684;2023-04-16T14:25:00;13.70;1.00
3566;DHT22;1797;51.844;7.684;2023-04-16T14:27:27;13.70;1.00
3566;DHT22;1797;51.844;7.684;2023-04-16T14:29:53;13.60;1.00
3566;DHT22;1797;51.844;7.684;2023-04-16T14:32:18;13.70;1.00
3566;DHT22;1797;51.844;7.684;2023-04-16T14:34:44;13.80;1.00
3566;DHT22;1797;51.844;7.684;2023-04-16T14:37:10;13.90;1.00
3566;DHT22;1797;51.844;7.684;2023-04-16T14:39:36;14.10;1.00
3566;DHT22;1797;51.844;7.684;2023-04-16T14:42:04;14.00;1.00
3566;DHT22;1797;51.844;7.684;2023-04-16T14:44:30;14.10;1.00
3566;DHT22;1797;51.844;7.684;2023-04-16T14:46:56;14.30;1.00
3566;DHT22;1797;51.844;7.684;2023-04-16T14:49:21;14.30;99.90
3566;DHT22;1797;51.844;7.684;2023-04-16T14:51:47;14.30;1.00
3566;DHT22;1797;51.844;7.684;2023-04-16T14:54:12;14.40;99.90
3566;DHT22;1797;51.844;7.684;2023-04-16T14:56:38;14.50;99.90
3566;DHT22;1797;51.844;7.684;2023-04-16T14:59:04;14.50;99.90
3566;DHT22;1797;51.844;7.684;2023-04-16T15:01:29;14.50;1.00
3566;DHT22;1797;51.844;7.684;2023-04-16T15:03:56;14.40;1.00
3566;DHT22;1797;51.844;7.684;2023-04-16T15:06:23;14.20;99.90
3566;DHT22;1797;51.844;7.684;2023-04-16T15:08:48;14.10;1.00
3566;DHT22;1797;51.844;7.684;2023-04-16T15:11:14;14.10;1.00
3566;DHT22;1797;51.844;7.684;2023-04-16T15:13:39;14.00;1.00
3566;DHT22;1797;51.844;7.684;2023-04-16T15:16:05;14.10;1.00
3566;DHT22;1797;51.844;7.684;2023-04-16T15:18:31;14.00;1.00
3566;DHT22;1797;51.844;7.684;2023-04-16T15:20:57;14.10;1.00
3566;DHT22;1797;51.844;7.684;2023-04-16T15:23:23;14.00;1.00
3566;DHT22;1797;51.844;7.684;2023-04-16T15:25:48;14.20;1.00
3566;DHT22;1797;51.844;7.684;2023-04-16T15:28:14;14.20;1.00
3566;DHT22;1797;51.844;7.684;2023-04-16T15:30:40;14.40;1.00
3566;DHT22;1797;51.844;7.684;2023-04-16T15:33:06;14.40;1.00
3566;DHT22;1797;51.844;7.684;2023-04-16T15:35:34;14.40;99.90
3566;DHT22;1797;51.844;7.684;2023-04-16T15:37:59;14.30;99.90
3566;DHT22;1797;51.844;7.684;2023-04-16T15:40:25;14.20;1.00
3566;DHT22;1797;51.844;7.684;2023-04-16T15:42:50;14.20;1.00
3566;DHT22;1797;51.844;7.684;2023-04-16T15:45:16;14.10;1.00
3566;DHT22;1797;51.844;7.684;2023-04-16T15:47:42;14.00;1.00
3566;DHT22;1797;51.844;7.684;2023-04-16T15:50:09;14.00;1.00
3566;DHT22;1797;51.844;7.684;2023-04-16T15:52:35;14.00;1.00
3566;DHT22;1797;51.844;7.684;2023-04-16T15:55:03;13.90;1.00
3566;DHT22;1797;51.844;7.684;2023-04-16T15:57:28;13.90;1.00
3566;DHT22;1797;51.844;7.684;2023-04-16T15:59:54;13.90;1.00
3566;DHT22;1797;51.844;7.684;2023-04-16T16:02:20;13.90;1.00
3566;DHT22;1797;51.844;7.684;2023-04-16T16:04:45;14.00;1.00
3566;DHT22;1797;51.844;7.684;2023-04-16T16:07:11;14.10;1.00
3566;DHT22;1797;51.844;7.684;2023-04-16T16:09:37;13.90;1.00
3566;DHT22;1797;51.844;7.684;2023-04-16T16:12:02;13.90;1.00
3566;DHT22;1797;51.844;7.684;2023-04-16T16:14:28;13.90;1.00
3566;DHT22;1797;51.844;7.684;2023-04-16T16:16:54;14.00;1.00
3566;DHT22;1797;51.844;7.684;2023-04-16T16:19:19;14.00;1.00